sensor_id;sensor_type;location;lat;lon;timestamp;pressure;altitude;pressure_sealevel;temperature;humidity
11448;BME280;43755;49.736;8.734;2024-01-25T00:00:16;99008.41;;;7.55;100.00
11448;BME280;43755;49.736;8.734;2024-01-25T00:02:17;98998.75;;;7.56;100.00
11448;BME280;43755;49.736;8.734;2024-01-25T00:04:19;98997.88;;;7.55;100.00
11448;BME280;43755;49.736;8.734;2024-01-25T00:06:21;99003.19;;;7.52;100.00
11448;BME280;43755;49.736;8.734;2024-01-25T00:08:23;99004.00;;;7.54;100.00
11448;BME280;43755;49.736;8.734;2024-01-25T00:10:24;98996.97;;;7.58;100.00
11448;BME280;43755;49.736;8.734;2024-01-25T00:12:25;98991.59;;;7.65;100.00
11448;BME280;43755;49.736;8.734;2024-01-25T00:14:26;99002.16;;;7.62;100.00
11448;BME280;43755;49.736;8.734;2024-01-25T00:16:27;98998.75;;;7.56;100.00
11448;BME280;43755;49.736;8.734;2024-01-25T00:18:28;99003.91;;;7.62;100.00
11448;BME280;43755;49.736;8.734;2024-01-25T00:20:30;99007.47;;;7.59;100.00
11448;BME280;43755;49.736;8.734;2024-01-25T00:22:31;99002.22;;;7.58;100.00
11448;BME280;43755;49.736;8.734;2024-01-25T00:24:33;98996.88;;;7.64;100.00
11448;BME280;43755;49.736;8.734;2024-01-25T00:26:33;98992.44;;;7.66;100.00
11448;BME280;43755;49.736;8.734;2024-01-25T00:28:35;98981.19;;;7.55;100.00
11448;BME280;43755;49.736;8.734;2024-01-25T00:30:35;98968.00;;;7.56;100.00
11448;BME280;43755;49.736;8.734;2024-01-25T00:32:36;98961.06;;;7.51;100.00
11448;BME280;43755;49.736;8.734;2024-01-25T00:34:38;98960.19;;;7.50;100.00
11448;BME280;43755;49.736;8.734;2024-01-25T00:36:40;98967.28;;;7.47;100.00
11448;BME280;43755;49.736;8.734;2024-01-25T00:38:44;98971.66;;;7.48;100.00
11448;BME280;43755;49.736;8.734;2024-01-25T00:40:46;98977.75;;;7.50;100.00
11448;BME280;43755;49.736;8.734;2024-01-25T00:42:48;98983.03;;;7.48;100.00
11448;BME280;43755;49.736;8.734;2024-01-25T00:44:53;98985.69;;;7.48;100.00
11448;BME280;43755;49.736;8.734;2024-01-25T00:46:55;98975.22;;;7.44;100.00
11448;BME280;43755;49.736;8.734;2024-01-25T00:48:56;98983.09;;;7.47;100.00
11448;BME280;43755;49.736;8.734;2024-01-25T00:50:58;98973.53;;;7.41;100.00
11448;BME280;43755;49.736;8.734;2024-01-25T00:52:59;98972.56;;;7.45;100.00
11448;BME280;43755;49.736;8.734;2024-01-25T00:55:03;98982.22;;;7.46;100.00
11448;BME280;43755;49.736;8.734;2024-01-25T00:57:05;98988.38;;;7.44;100.00
11448;BME280;43755;49.736;8.734;2024-01-25T00:59:07;98984.00;;;7.44;100.00
11448;BME280;43755;49.736;8.734;2024-01-25T01:01:08;98971.78;;;7.38;100.00
11448;BME280;43755;49.736;8.734;2024-01-25T01:03:11;98984.16;;;7.33;100.00
11448;BME280;43755;49.736;8.734;2024-01-25T01:05:15;98973.66;;;7.30;100.00
11448;BME280;43755;49.736;8.734;2024-01-25T01:07:17;98973.66;;;7.30;100.00
11448;BME280;43755;49.736;8.734;2024-01-25T01:09:19;98966.63;;;7.31;100.00
11448;BME280;43755;49.736;8.734;2024-01-25T01:11:21;98967.47;;;7.36;100.00
11448;BME280;43755;49.736;8.734;2024-01-25T01:13:23;98969.16;;;7.37;100.00
11448;BME280;43755;49.736;8.734;2024-01-25T01:15:24;98970.13;;;7.31;100.00
11448;BME280;43755;49.736;8.734;2024-01-25T01:17:26;98959.66;;;7.28;100.00
11448;BME280;43755;49.736;8.734;2024-01-25T01:19:27;98963.97;;;7.34;100.00
11448;BME280;43755;49.736;8.734;2024-01-25T01:21:28;98958.69;;;7.34;100.00
11448;BME280;43755;49.736;8.734;2024-01-25T01:23:30;98961.44;;;7.26;100.00
11448;BME280;43755;49.736;8.734;2024-01-25T01:25:31;98963.25;;;7.24;100.00
11448;BME280;43755;49.736;8.734;2024-01-25T01:27:34;98964.03;;;7.29;100.00
11448;BME280;43755;49.736;8.734;2024-01-25T01:29:35;98958.63;;;7.40;100.00
11448;BME280;43755;49.736;8.734;2024-01-25T01:31:35;98965.56;;;7.44;100.00
11448;BME280;43755;49.736;8.734;2024-01-25T01:33:37;98968.25;;;7.41;100.00
11448;BME280;43755;49.736;8.734;2024-01-25T01:35:38;98971.75;;;7.42;100.00
11448;BME280;43755;49.736;8.734;2024-01-25T01:37:40;98973.38;;;7.49;100.00
11448;BME280;43755;49.736;8.734;2024-01-25T01:39:41;98981.25;;;7.50;100.00
11448;BME280;43755;49.736;8.734;2024-01-25T01:41:46;98970.78;;;7.47;100.00
11448;BME280;43755;49.736;8.734;2024-01-25T01:43:52;98984.91;;;7.42;100.00
11448;BME280;43755;49.736;8.734;2024-01-25T01:45:54;98977.13;;;7.35;100.00
11448;BME280;43755;49.736;8.734;2024-01-25T01:48:01;98976.34;;;7.26;100.00
11448;BME280;43755;49.736;8.734;2024-01-25T01:50:03;98979.84;;;7.29;100.00
11448;BME280;43755;49.736;8.734;2024-01-25T01:52:05;98979.75;;;7.34;100.00
11448;BME280;43755;49.736;8.734;2024-01-25T01:54:07;98987.72;;;7.29;100.00
11448;BME280;43755;49.736;8.734;2024-01-25T01:56:09;98987.78;;;7.25;100.00
11448;BME280;43755;49.736;8.734;2024-01-25T01:58:11;98984.31;;;7.23;100.00
11448;BME280;43755;49.736;8.734;2024-01-25T02:00:14;98979.91;;;7.23;100.00
11448;BME280;43755;49.736;8.734;2024-01-25T02:02:16;98986.06;;;7.24;100.00
11448;BME280;43755;49.736;8.734;2024-01-25T02:04:17;98984.31;;;7.21;100.00
11448;BME280;43755;49.736;8.734;2024-01-25T02:06:19;98985.97;;;7.28;100.00
11448;BME280;43755;49.736;8.734;2024-01-25T02:08:21;98994.59;;;7.39;100.00
11448;BME280;43755;49.736;8.734;2024-01-25T02:10:22;98992.94;;;7.32;100.00
11448;BME280;43755;49.736;8.734;2024-01-25T02:12:23;98996.31;;;7.42;100.00
11448;BME280;43755;49.736;8.734;2024-01-25T02:14:25;98988.47;;;7.39;100.00
11448;BME280;43755;49.736;8.734;2024-01-25T02:16:28;98985.09;;;7.28;100.00
11448;BME280;43755;49.736;8.734;2024-01-25T02:18:29;98985.03;;;7.34;100.00
11448;BME280;43755;49.736;8.734;2024-01-25T02:20:31;98986.00;;;7.25;100.00
11448;BME280;43755;49.736;8.734;2024-01-25T02:22:33;98989.63;;;7.18;100.00
11448;BME280;43755;49.736;8.734;2024-01-25T02:24:35;98986.13;;;7.18;100.00
11448;BME280;43755;49.736;8.734;2024-01-25T02:26:37;98984.31;;;7.21;100.00
11448;BME280;43755;49.736;8.734;2024-01-25T02:28:39;98984.38;;;7.18;100.00
11448;BME280;43755;49.736;8.734;2024-01-25T02:30:40;98972.19;;;7.13;100.00
11448;BME280;43755;49.736;8.734;2024-01-25T02:32:42;98982.66;;;7.14;100.00
11448;BME280;43755;49.736;8.734;2024-01-25T02:34:43;98989.75;;;7.09;100.00
11448;BME280;43755;49.736;8.734;2024-01-25T02:36:44;98995.88;;;7.11;100.00
11448;BME280;43755;49.736;8.734;2024-01-25T02:38:47;98998.50;;;7.11;100.00
11448;BME280;43755;49.736;8.734;2024-01-25T02:40:48;99002.09;;;7.06;100.00
11448;BME280;43755;49.736;8.734;2024-01-25T02:42:49;98987.13;;;7.08;100.00
11448;BME280;43755;49.736;8.734;2024-01-25T02:44:51;98987.13;;;7.08;100.00
11448;BME280;43755;49.736;8.734;2024-01-25T02:46:52;98995.06;;;7.05;100.00
11448;BME280;43755;49.736;8.734;2024-01-25T02:48:53;98995.25;;;6.91;100.00
11448;BME280;43755;49.736;8.734;2024-01-25T02:50:55;98991.78;;;6.89;100.00
11448;BME280;43755;49.736;8.734;2024-01-25T02:52:56;98994.50;;;6.81;100.00
11448;BME280;43755;49.736;8.734;2024-01-25T02:54:59;98993.53;;;6.88;100.00
11448;BME280;43755;49.736;8.734;2024-01-25T02:57:00;98988.31;;;6.84;100.00
11448;BME280;43755;49.736;8.734;2024-01-25T02:59:02;98995.38;;;6.80;100.00
11448;BME280;43755;49.736;8.734;2024-01-25T03:01:03;98995.25;;;6.89;100.00
11448;BME280;43755;49.736;8.734;2024-01-25T03:03:05;98982.97;;;6.91;100.00
11448;BME280;43755;49.736;8.734;2024-01-25T03:05:07;98985.53;;;6.96;100.00
11448;BME280;43755;49.736;8.734;2024-01-25T03:07:07;98985.50;;;6.97;100.00
11448;BME280;43755;49.736;8.734;2024-01-25T03:09:08;98992.53;;;6.98;100.00
11448;BME280;43755;49.736;8.734;2024-01-25T03:11:11;99004.00;;;6.93;100.00
11448;BME280;43755;49.736;8.734;2024-01-25T03:13:13;98994.22;;;7.03;100.00
11448;BME280;43755;49.736;8.734;2024-01-25T03:15:14;99001.19;;;7.07;100.00
11448;BME280;43755;49.736;8.734;2024-01-25T03:17:16;99006.63;;;6.91;100.00
11448;BME280;43755;49.736;8.734;2024-01-25T03:19:16;99007.56;;;6.87;100.00
11448;BME280;43755;49.736;8.734;2024-01-25T03:21:18;99003.31;;;6.76;100.00
11448;BME280;43755;49.736;8.734;2024-01-25T03:23:19;99010.41;;;6.69;100.00
11448;BME280;43755;49.736;8.734;2024-01-25T03:25:21;99004.28;;;6.67;100.00
11448;BME280;43755;49.736;8.734;2024-01-25T03:27:23;99009.59;;;6.63;100.00
11448;BME280;43755;49.736;8.734;2024-01-25T03:29:25;99010.44;;;6.66;100.00
11448;BME280;43755;49.736;8.734;2024-01-25T03:31:26;99018.31;;;6.69;100.00
11448;BME280;43755;49.736;8.734;2024-01-25T03:33:27;99006.03;;;6.70;100.00
11448;BME280;43755;49.736;8.734;2024-01-25T03:35:29;99013.88;;;6.73;100.00
11448;BME280;43755;49.736;8.734;2024-01-25T03:37:30;99019.09;;;6.76;100.00
11448;BME280;43755;49.736;8.734;2024-01-25T03:39:32;99006.78;;;6.79;100.00
11448;BME280;43755;49.736;8.734;2024-01-25T03:41:33;99013.84;;;6.76;100.00
11448;BME280;43755;49.736;8.734;2024-01-25T03:43:36;99009.53;;;6.67;100.00
11448;BME280;43755;49.736;8.734;2024-01-25T03:45:36;99014.06;;;6.56;100.00
11448;BME280;43755;49.736;8.734;2024-01-25T03:47:38;99012.38;;;6.50;100.00
11448;BME280;43755;49.736;8.734;2024-01-25T03:49:39;99001.03;;;6.45;100.00
11448;BME280;43755;49.736;8.734;2024-01-25T03:51:41;99013.31;;;6.45;100.00
11448;BME280;43755;49.736;8.734;2024-01-25T03:53:41;99004.56;;;6.43;100.00
11448;BME280;43755;49.736;8.734;2024-01-25T03:55:43;99005.47;;;6.40;100.00
11448;BME280;43755;49.736;8.734;2024-01-25T03:57:44;99001.91;;;6.43;100.00
11448;BME280;43755;49.736;8.734;2024-01-25T03:59:47;99007.22;;;6.41;100.00
11448;BME280;43755;49.736;8.734;2024-01-25T04:01:49;99015.09;;;6.40;100.00
11448;BME280;43755;49.736;8.734;2024-01-25T04:03:50;99013.38;;;6.37;100.00
11448;BME280;43755;49.736;8.734;2024-01-25T04:05:50;99016.88;;;6.36;100.00
11448;BME280;43755;49.736;8.734;2024-01-25T04:07:52;99022.19;;;6.35;100.00
11448;BME280;43755;49.736;8.734;2024-01-25T04:09:53;99024.88;;;6.29;100.00
11448;BME280;43755;49.736;8.734;2024-01-25T04:11:54;99033.56;;;6.31;100.00
11448;BME280;43755;49.736;8.734;2024-01-25T04:13:56;99041.44;;;6.34;100.00
11448;BME280;43755;49.736;8.734;2024-01-25T04:15:59;99037.06;;;6.33;100.00
11448;BME280;43755;49.736;8.734;2024-01-25T04:18:01;99050.16;;;6.39;100.00
11448;BME280;43755;49.736;8.734;2024-01-25T04:20:03;99048.25;;;6.54;100.00
11448;BME280;43755;49.736;8.734;2024-01-25T04:22:04;99051.75;;;6.56;100.00
11448;BME280;43755;49.736;8.734;2024-01-25T04:24:06;99052.50;;;6.68;100.00
11448;BME280;43755;49.736;8.734;2024-01-25T04:26:06;99052.50;;;6.68;100.00
11448;BME280;43755;49.736;8.734;2024-01-25T04:28:08;99058.63;;;6.67;100.00
11448;BME280;43755;49.736;8.734;2024-01-25T04:30:08;99058.63;;;6.68;100.00
11448;BME280;43755;49.736;8.734;2024-01-25T04:32:12;99069.97;;;6.72;100.00
11448;BME280;43755;49.736;8.734;2024-01-25T04:34:13;99070.03;;;6.67;100.00
11448;BME280;43755;49.736;8.734;2024-01-25T04:36:15;99064.78;;;6.67;100.00
11448;BME280;43755;49.736;8.734;2024-01-25T04:38:16;99070.84;;;6.72;100.00
11448;BME280;43755;49.736;8.734;2024-01-25T04:40:18;99074.34;;;6.76;100.00
11448;BME280;43755;49.736;8.734;2024-01-25T04:42:19;99062.09;;;6.72;100.00
11448;BME280;43755;49.736;8.734;2024-01-25T04:44:20;99063.88;;;6.70;100.00
11448;BME280;43755;49.736;8.734;2024-01-25T04:46:21;99062.13;;;6.69;100.00
11448;BME280;43755;49.736;8.734;2024-01-25T04:48:23;99070.84;;;6.74;100.00
11448;BME280;43755;49.736;8.734;2024-01-25T04:50:25;99068.31;;;6.63;100.00
11448;BME280;43755;49.736;8.734;2024-01-25T04:52:26;99065.78;;;6.54;100.00
11448;BME280;43755;49.736;8.734;2024-01-25T04:54:28;99064.88;;;6.58;100.00
11448;BME280;43755;49.736;8.734;2024-01-25T04:56:29;99058.81;;;6.50;100.00
11448;BME280;43755;49.736;8.734;2024-01-25T04:58:31;99061.50;;;6.44;100.00
11448;BME280;43755;49.736;8.734;2024-01-25T05:00:31;99072.06;;;6.36;100.00
11448;BME280;43755;49.736;8.734;2024-01-25T05:02:33;99077.38;;;6.35;100.00
11448;BME280;43755;49.736;8.734;2024-01-25T05:04:35;99078.25;;;6.34;100.00
11448;BME280;43755;49.736;8.734;2024-01-25T05:06:36;99087.16;;;6.18;100.00
11448;BME280;43755;49.736;8.734;2024-01-25T05:08:38;99078.50;;;6.03;100.00
11448;BME280;43755;49.736;8.734;2024-01-25T05:10:38;99077.66;;;5.98;100.00
11448;BME280;43755;49.736;8.734;2024-01-25T05:12:40;99080.25;;;6.01;100.00
11448;BME280;43755;49.736;8.734;2024-01-25T05:14:41;99086.47;;;5.93;100.00
11448;BME280;43755;49.736;8.734;2024-01-25T05:16:43;99087.34;;;5.86;100.00
11448;BME280;43755;49.736;8.734;2024-01-25T05:18:44;99073.34;;;5.87;100.00
11448;BME280;43755;49.736;8.734;2024-01-25T05:20:46;99060.25;;;5.77;100.00
11448;BME280;43755;49.736;8.734;2024-01-25T05:22:47;99060.25;;;5.79;100.00
11448;BME280;43755;49.736;8.734;2024-01-25T05:24:48;99062.06;;;5.71;100.00
11448;BME280;43755;49.736;8.734;2024-01-25T05:26:50;99069.03;;;5.73;100.00
11448;BME280;43755;49.736;8.734;2024-01-25T05:28:51;99080.47;;;5.66;100.00
11448;BME280;43755;49.736;8.734;2024-01-25T05:30:53;99091.88;;;5.62;100.00
11448;BME280;43755;49.736;8.734;2024-01-25T05:32:54;99083.16;;;5.59;100.00
11448;BME280;43755;49.736;8.734;2024-01-25T05:34:56;99085.75;;;5.63;100.00
11448;BME280;43755;49.736;8.734;2024-01-25T05:36:58;99100.63;;;5.63;100.00
11448;BME280;43755;49.736;8.734;2024-01-25T05:39:00;99091.03;;;5.59;100.00
11448;BME280;43755;49.736;8.734;2024-01-25T05:41:06;99095.38;;;5.60;100.00
11448;BME280;43755;49.736;8.734;2024-01-25T05:43:08;99099.75;;;5.62;100.00
11448;BME280;43755;49.736;8.734;2024-01-25T05:45:10;99095.34;;;5.67;100.00
11448;BME280;43755;49.736;8.734;2024-01-25T05:47:11;99105.88;;;5.63;100.00
11448;BME280;43755;49.736;8.734;2024-01-25T05:49:12;99090.84;;;5.85;100.00
11448;BME280;43755;49.736;8.734;2024-01-25T05:51:14;99099.47;;;6.11;100.00
11448;BME280;43755;49.736;8.734;2024-01-25T05:53:17;99106.44;;;6.15;100.00
11448;BME280;43755;49.736;8.734;2024-01-25T05:55:20;99097.81;;;5.98;100.00
11448;BME280;43755;49.736;8.734;2024-01-25T05:57:21;99103.88;;;6.03;100.00
11448;BME280;43755;49.736;8.734;2024-01-25T05:59:22;99102.88;;;6.22;100.00
11448;BME280;43755;49.736;8.734;2024-01-25T06:01:24;99101.16;;;6.15;100.00
11448;BME280;43755;49.736;8.734;2024-01-25T06:03:24;99104.72;;;6.12;100.00
11448;BME280;43755;49.736;8.734;2024-01-25T06:05:27;99104.72;;;6.09;100.00
11448;BME280;43755;49.736;8.734;2024-01-25T06:07:28;99112.63;;;6.05;100.00
11448;BME280;43755;49.736;8.734;2024-01-25T06:09:30;99129.28;;;6.04;100.00
11448;BME280;43755;49.736;8.734;2024-01-25T06:11:32;99120.53;;;6.06;100.00
11448;BME280;43755;49.736;8.734;2024-01-25T06:13:35;99122.22;;;6.12;100.00
11448;BME280;43755;49.736;8.734;2024-01-25T06:15:37;99121.34;;;6.11;100.00
11448;BME280;43755;49.736;8.734;2024-01-25T06:17:38;99119.59;;;6.10;100.00
11448;BME280;43755;49.736;8.734;2024-01-25T06:19:40;99110.84;;;6.10;100.00
11448;BME280;43755;49.736;8.734;2024-01-25T06:21:41;99109.97;;;6.11;100.00
11448;BME280;43755;49.736;8.734;2024-01-25T06:23:43;99109.09;;;6.09;100.00
11448;BME280;43755;49.736;8.734;2024-01-25T06:25:44;99099.47;;;6.12;100.00
11448;BME280;43755;49.736;8.734;2024-01-25T06:27:46;99106.47;;;6.10;100.00
11448;BME280;43755;49.736;8.734;2024-01-25T06:29:48;99102.09;;;6.09;100.00
11448;BME280;43755;49.736;8.734;2024-01-25T06:31:50;99105.69;;;5.98;100.00
11448;BME280;43755;49.736;8.734;2024-01-25T06:33:50;99103.00;;;6.01;100.00
11448;BME280;43755;49.736;8.734;2024-01-25T06:35:53;99111.63;;;6.23;100.00
11448;BME280;43755;49.736;8.734;2024-01-25T06:37:54;99102.97;;;6.08;100.00
11448;BME280;43755;49.736;8.734;2024-01-25T06:39:55;99116.97;;;6.10;100.00
11448;BME280;43755;49.736;8.734;2024-01-25T06:41:58;99110.84;;;6.10;100.00
11448;BME280;43755;49.736;8.734;2024-01-25T06:43:59;99112.66;;;6.03;100.00
11448;BME280;43755;49.736;8.734;2024-01-25T06:46:00;99104.81;;;6.00;100.00
11448;BME280;43755;49.736;8.734;2024-01-25T06:48:01;99099.50;;;6.06;100.00
11448;BME280;43755;49.736;8.734;2024-01-25T06:50:03;99106.56;;;5.95;100.00
11448;BME280;43755;49.736;8.734;2024-01-25T06:52:04;99107.47;;;5.84;100.00
11448;BME280;43755;49.736;8.734;2024-01-25T06:54:06;99100.50;;;5.80;100.00
11448;BME280;43755;49.736;8.734;2024-01-25T06:56:07;99114.59;;;5.69;100.00
11448;BME280;43755;49.736;8.734;2024-01-25T06:58:10;99107.69;;;5.50;100.00
11448;BME280;43755;49.736;8.734;2024-01-25T07:00:12;99100.72;;;5.45;100.00
11448;BME280;43755;49.736;8.734;2024-01-25T07:02:15;99097.25;;;5.38;100.00
11448;BME280;43755;49.736;8.734;2024-01-25T07:04:16;99101.59;;;5.36;100.00
11448;BME280;43755;49.736;8.734;2024-01-25T07:06:17;99099.00;;;5.31;100.00
11448;BME280;43755;49.736;8.734;2024-01-25T07:08:19;99107.75;;;5.32;100.00
11448;BME280;43755;49.736;8.734;2024-01-25T07:10:20;99112.19;;;5.22;100.00
11448;BME280;43755;49.736;8.734;2024-01-25T07:12:22;99108.72;;;5.11;100.00
11448;BME280;43755;49.736;8.734;2024-01-25T07:14:25;99107.88;;;5.03;100.00
11448;BME280;43755;49.736;8.734;2024-01-25T07:16:26;99110.50;;;4.97;100.00
11448;BME280;43755;49.736;8.734;2024-01-25T07:18:28;99114.91;;;5.00;100.00
11448;BME280;43755;49.736;8.734;2024-01-25T07:20:28;99121.88;;;5.05;100.00
11448;BME280;43755;49.736;8.734;2024-01-25T07:22:29;99131.47;;;5.02;100.00
11448;BME280;43755;49.736;8.734;2024-01-25T07:24:31;99135.00;;;5.01;100.00
11448;BME280;43755;49.736;8.734;2024-01-25T07:26:33;99143.69;;;5.07;100.00
11448;BME280;43755;49.736;8.734;2024-01-25T07:28:33;99147.19;;;5.11;100.00
11448;BME280;43755;49.736;8.734;2024-01-25T07:30:36;99152.47;;;5.06;100.00
11448;BME280;43755;49.736;8.734;2024-01-25T07:32:37;99148.97;;;5.03;100.00
11448;BME280;43755;49.736;8.734;2024-01-25T07:34:39;99161.19;;;5.08;100.00
11448;BME280;43755;49.736;8.734;2024-01-25T07:36:40;99159.47;;;5.04;100.00
11448;BME280;43755;49.736;8.734;2024-01-25T07:38:41;99152.44;;;5.15;100.00
11448;BME280;43755;49.736;8.734;2024-01-25T07:40:43;99153.31;;;5.10;100.00
11448;BME280;43755;49.736;8.734;2024-01-25T07:42:46;99155.09;;;5.06;100.00
11448;BME280;43755;49.736;8.734;2024-01-25T07:44:47;99155.97;;;5.05;100.00
11448;BME280;43755;49.736;8.734;2024-01-25T07:46:50;99156.84;;;5.04;100.00
11448;BME280;43755;49.736;8.734;2024-01-25T07:48:51;99153.34;;;5.05;100.00
11448;BME280;43755;49.736;8.734;2024-01-25T07:50:52;99154.22;;;5.03;100.00
11448;BME280;43755;49.736;8.734;2024-01-25T07:52:54;99155.06;;;5.02;100.00
11448;BME280;43755;49.736;8.734;2024-01-25T07:54:56;99148.09;;;4.96;100.00
11448;BME280;43755;49.736;8.734;2024-01-25T07:56:56;99155.13;;;4.92;100.00
11448;BME280;43755;49.736;8.734;2024-01-25T07:58:58;99153.38;;;4.93;100.00
11448;BME280;43755;49.736;8.734;2024-01-25T08:01:02;99156.84;;;4.98;100.00
11448;BME280;43755;49.736;8.734;2024-01-25T08:03:06;99164.72;;;5.00;100.00
11448;BME280;43755;49.736;8.734;2024-01-25T08:05:08;99156.84;;;5.00;100.00
11448;BME280;43755;49.736;8.734;2024-01-25T08:07:09;99159.50;;;4.93;100.00
11448;BME280;43755;49.736;8.734;2024-01-25T08:09:10;99162.09;;;4.98;100.00
11448;BME280;43755;49.736;8.734;2024-01-25T08:11:12;99159.47;;;4.92;100.00
11448;BME280;43755;49.736;8.734;2024-01-25T08:13:13;99155.97;;;4.98;100.00
11448;BME280;43755;49.736;8.734;2024-01-25T08:15:15;99156.88;;;4.93;100.00
11448;BME280;43755;49.736;8.734;2024-01-25T08:17:16;99155.09;;;4.95;100.00
11448;BME280;43755;49.736;8.734;2024-01-25T08:19:19;99153.34;;;5.02;100.00
11448;BME280;43755;49.736;8.734;2024-01-25T08:21:20;99159.44;;;5.03;100.00
11448;BME280;43755;49.736;8.734;2024-01-25T08:23:21;99169.03;;;5.14;100.00
11448;BME280;43755;49.736;8.734;2024-01-25T08:25:22;99165.56;;;5.18;100.00
11448;BME280;43755;49.736;8.734;2024-01-25T08:27:24;99165.53;;;5.23;100.00
11448;BME280;43755;49.736;8.734;2024-01-25T08:29:26;99175.13;;;5.28;100.00
11448;BME280;43755;49.736;8.734;2024-01-25T08:31:27;99166.38;;;5.29;100.00
11448;BME280;43755;49.736;8.734;2024-01-25T08:33:28;99167.25;;;5.33;100.00
11448;BME280;43755;49.736;8.734;2024-01-25T08:35:31;99159.34;;;5.41;100.00
11448;BME280;43755;49.736;8.734;2024-01-25T08:37:31;99160.19;;;5.43;100.00
11448;BME280;43755;49.736;8.734;2024-01-25T08:39:33;99161.09;;;5.42;100.00
11448;BME280;43755;49.736;8.734;2024-01-25T08:41:34;99162.84;;;5.36;100.00
11448;BME280;43755;49.736;8.734;2024-01-25T08:43:35;99161.09;;;5.42;100.00
11448;BME280;43755;49.736;8.734;2024-01-25T08:45:36;99169.81;;;5.51;100.00
11448;BME280;43755;49.736;8.734;2024-01-25T08:47:38;99168.91;;;5.54;100.00
11448;BME280;43755;49.736;8.734;2024-01-25T08:49:39;99177.66;;;5.54;100.00
11448;BME280;43755;49.736;8.734;2024-01-25T08:51:42;99175.94;;;5.52;100.00
11448;BME280;43755;49.736;8.734;2024-01-25T08:53:44;99177.63;;;5.60;100.00
11448;BME280;43755;49.736;8.734;2024-01-25T08:55:44;99177.63;;;5.65;100.00
11448;BME280;43755;49.736;8.734;2024-01-25T08:57:46;99188.09;;;5.69;100.00
11448;BME280;43755;49.736;8.734;2024-01-25T08:59:47;99181.00;;;5.84;100.00
11448;BME280;43755;49.736;8.734;2024-01-25T09:01:48;99188.00;;;5.89;100.00
11448;BME280;43755;49.736;8.734;2024-01-25T09:03:50;99185.34;;;5.95;100.00
11448;BME280;43755;49.736;8.734;2024-01-25T09:05:51;99191.50;;;5.99;100.00
11448;BME280;43755;49.736;8.734;2024-01-25T09:07:54;99192.31;;;6.04;100.00
11448;BME280;43755;49.736;8.734;2024-01-25T09:09:54;99196.66;;;6.11;100.00
11448;BME280;43755;49.736;8.734;2024-01-25T09:11:56;99193.13;;;6.15;100.00
11448;BME280;43755;49.736;8.734;2024-01-25T09:13:57;99194.88;;;6.18;100.00
11448;BME280;43755;49.736;8.734;2024-01-25T09:15:58;99200.94;;;6.29;100.00
11448;BME280;43755;49.736;8.734;2024-01-25T09:18:00;99192.13;;;6.34;100.00
11448;BME280;43755;49.736;8.734;2024-01-25T09:20:01;99188.59;;;6.37;100.00
11448;BME280;43755;49.736;8.734;2024-01-25T09:22:03;99192.88;;;6.51;100.00
11448;BME280;43755;49.736;8.734;2024-01-25T09:24:06;99188.41;;;6.63;100.00
11448;BME280;43755;49.736;8.734;2024-01-25T09:26:08;99191.06;;;6.60;100.00
11448;BME280;43755;49.736;8.734;2024-01-25T09:28:10;99180.50;;;6.64;100.00
11448;BME280;43755;49.736;8.734;2024-01-25T09:30:13;99181.31;;;6.72;100.00
11448;BME280;43755;49.736;8.734;2024-01-25T09:32:15;99187.47;;;6.71;100.00
11448;BME280;43755;49.736;8.734;2024-01-25T09:34:15;99179.50;;;6.80;100.00
11448;BME280;43755;49.736;8.734;2024-01-25T09:36:17;99182.00;;;6.92;100.00
11448;BME280;43755;49.736;8.734;2024-01-25T09:38:18;99186.34;;;6.98;100.00
11448;BME280;43755;49.736;8.734;2024-01-25T09:40:21;99177.50;;;7.04;100.00
11448;BME280;43755;49.736;8.734;2024-01-25T09:42:23;99183.53;;;7.15;100.00
11448;BME280;43755;49.736;8.734;2024-01-25T09:44:24;99175.66;;;7.13;100.00
11448;BME280;43755;49.736;8.734;2024-01-25T09:46:26;99177.34;;;7.20;100.00
11448;BME280;43755;49.736;8.734;2024-01-25T09:48:27;99176.44;;;7.24;100.00
11448;BME280;43755;49.736;8.734;2024-01-25T09:50:29;99189.41;;;7.39;100.00
11448;BME280;43755;49.736;8.734;2024-01-25T09:52:34;99191.19;;;7.37;100.00
11448;BME280;43755;49.736;8.734;2024-01-25T09:54:36;99194.75;;;7.30;100.00
11448;BME280;43755;49.736;8.734;2024-01-25T09:56:41;99193.94;;;7.27;100.00
11448;BME280;43755;49.736;8.734;2024-01-25T09:58:43;99199.13;;;7.33;100.00
11448;BME280;43755;49.736;8.734;2024-01-25T10:00:46;99202.69;;;7.29;100.00
11448;BME280;43755;49.736;8.734;2024-01-25T10:02:47;99203.38;;;7.46;100.00
11448;BME280;43755;49.736;8.734;2024-01-25T10:04:49;99207.72;;;7.50;100.00
11448;BME280;43755;49.736;8.734;2024-01-25T10:06:55;99211.91;;;7.66;100.00
11448;BME280;43755;49.736;8.734;2024-01-25T10:08:56;99213.53;;;7.78;100.00
11448;BME280;43755;49.736;8.734;2024-01-25T10:10:57;99212.56;;;7.83;100.00
11448;BME280;43755;49.736;8.734;2024-01-25T10:12:59;99215.09;;;7.94;100.00
11448;BME280;43755;49.736;8.734;2024-01-25T10:15:02;99208.81;;;8.03;100.00
11448;BME280;43755;49.736;8.734;2024-01-25T10:17:04;99209.78;;;7.96;100.00
11448;BME280;43755;49.736;8.734;2024-01-25T10:19:06;99207.03;;;8.05;100.00
11448;BME280;43755;49.736;8.734;2024-01-25T10:21:09;99202.66;;;8.05;100.00
11448;BME280;43755;49.736;8.734;2024-01-25T10:23:10;99205.16;;;8.13;100.00
11448;BME280;43755;49.736;8.734;2024-01-25T10:25:12;99207.69;;;8.19;100.00
11448;BME280;43755;49.736;8.734;2024-01-25T10:27:14;99208.56;;;8.21;100.00
11448;BME280;43755;49.736;8.734;2024-01-25T10:29:17;99197.03;;;8.31;100.00
11448;BME280;43755;49.736;8.734;2024-01-25T10:31:19;99204.94;;;8.30;100.00
11448;BME280;43755;49.736;8.734;2024-01-25T10:33:19;99210.25;;;8.25;100.00
11448;BME280;43755;49.736;8.734;2024-01-25T10:35:21;99210.03;;;8.43;100.00
11448;BME280;43755;49.736;8.734;2024-01-25T10:37:23;99198.28;;;8.66;100.00
11448;BME280;43755;49.736;8.734;2024-01-25T10:39:26;99205.22;;;8.70;100.00
11448;BME280;43755;49.736;8.734;2024-01-25T10:41:26;99209.53;;;8.75;100.00
11448;BME280;43755;49.736;8.734;2024-01-25T10:43:28;99202.31;;;8.86;100.00